Ramore, Canada
Current Conditions -  °F | °C
As of 5:00 PM on Wednesday 22 Oct 2014 (Local Time) from CYTS Reporting Station
Few Clouds Few Clouds  
Wind Chill:   Ceiling: Unl
Heat Index:   Visibility: 15mi
Dew Point: -2°   Wind: 6mph
Humidity: 46%   Direction: 200°SSW
Pressure: 30.32"   Gusts: NA
Location:  48.42°N, 80.32°W
Report Text: CYTS 222100Z 20005KT 160V230 15SM FEW150 09/M02 A3032 RMK AC1 SLP282
Loading
Personal Weather Stations






























Interactive Weather Map
Tropical Storm Tracking
New forecast layout! Learn more

10-Day Weather Forecast

Advertisements
Track Severe Weather on mobile